Time;durP1;ratioP1;P1;durP2;ratioP2;P2;SDS_P1;SDS_P2;PMS_P1;PMS_P2;Temp;Humidity;BMP_temperature;BMP_pressure;BME280_temperature;BME280_humidity;BME280_pressure;Samples;Min_cycle;Max_cycle;Signal;HPM_P1;HPM_P2
2022/09/01 00:01:47;;;;;;;2.37;0.90;;;16.30;99.90;;;;;;5113687;28;20851;-59
2022/09/01 00:04:18;;;;;;;1.20;0.90;;;16.30;99.90;;;;;;5113712;28;20456;-58
2022/09/01 00:06:45;;;;;;;1.30;0.90;;;16.30;99.90;;;;;;5113564;28;20485;-58
2022/09/01 00:09:13;;;;;;;1.90;0.80;;;16.20;99.90;;;;;;5113555;28;20455;-58
2022/09/01 00:11:42;;;;;;;2.00;1.00;;;16.30;99.90;;;;;;5113447;28;20536;-58
2022/09/01 00:14:10;;;;;;;1.47;1.37;;;16.20;99.90;;;;;;5113513;28;20469;-58
2022/09/01 00:16:37;;;;;;;1.43;1.10;;;16.20;99.90;;;;;;5113448;28;20502;-58
2022/09/01 00:19:06;;;;;;;1.20;0.90;;;16.10;99.90;;;;;;5113406;28;20445;-57
2022/09/01 00:21:37;;;;;;;0.70;0.67;;;16.10;99.90;;;;;;5113343;28;20445;-58
2022/09/01 00:24:04;;;;;;;1.30;1.20;;;16.10;99.90;;;;;;5113287;28;20459;-57
2022/09/01 00:26:31;;;;;;;1.60;0.73;;;16.10;99.90;;;;;;5113528;28;20446;-58
2022/09/01 00:28:58;;;;;;;1.83;0.90;;;16.10;99.90;;;;;;5113185;28;20967;-58
2022/09/01 00:31:25;;;;;;;1.40;0.90;;;16.00;99.90;;;;;;5113369;28;20818;-58
2022/09/01 00:33:52;;;;;;;0.90;0.80;;;16.00;99.90;;;;;;5113333;28;20813;-58
2022/09/01 00:36:21;;;;;;;0.97;0.80;;;16.00;99.90;;;;;;5113272;28;20489;-58
2022/09/01 00:38:48;;;;;;;0.90;0.80;;;16.10;99.90;;;;;;5113461;28;20449;-58
2022/09/01 00:41:17;;;;;;;1.10;1.00;;;16.10;99.90;;;;;;5113349;28;20452;-58
2022/09/01 00:43:47;;;;;;;1.50;0.90;;;16.10;99.90;;;;;;5113232;28;20532;-58
2022/09/01 00:46:16;;;;;;;1.20;1.10;;;16.10;99.90;;;;;;5113252;28;20812;-58
2022/09/01 00:48:43;;;;;;;1.37;0.90;;;16.20;99.90;;;;;;5113005;28;20477;-58
2022/09/01 00:51:11;;;;;;;1.23;0.83;;;16.20;99.90;;;;;;5113109;28;20446;-58
2022/09/01 00:53:41;;;;;;;3.00;0.90;;;16.20;99.90;;;;;;5113280;28;20603;-58
2022/09/01 00:56:08;;;;;;;1.40;1.10;;;16.30;99.90;;;;;;5113232;28;20455;-57
2022/09/01 00:58:37;;;;;;;0.80;0.70;;;16.20;99.90;;;;;;5113065;28;20536;-56
2022/09/01 01:01:04;;;;;;;1.90;0.77;;;16.30;99.90;;;;;;5116664;28;20449;-57
2022/09/01 01:03:31;;;;;;;1.93;1.23;;;16.30;99.90;;;;;;5116834;28;20442;-58
2022/09/01 01:06:02;;;;;;;0.90;0.70;;;16.30;99.90;;;;;;5116846;28;20482;-58
2022/09/01 01:08:33;;;;;;;1.87;0.80;;;16.20;99.90;;;;;;5116991;28;20458;-58
2022/09/01 01:11:03;;;;;;;1.00;0.80;;;16.10;99.90;;;;;;5116843;28;20445;-58
2022/09/01 01:13:30;;;;;;;2.10;1.00;;;16.00;99.90;;;;;;5116685;28;20861;-58
2022/09/01 01:15:58;;;;;;;1.23;0.93;;;16.00;99.90;;;;;;5116679;28;20528;-57
2022/09/01 01:18:25;;;;;;;1.97;0.97;;;16.00;99.90;;;;;;5116506;28;20758;-58
2022/09/01 01:23:51;;;;;;;2.27;1.03;;;15.90;99.90;;;;;;5116539;28;20437;-58
2022/09/01 01:26:19;;;;;;;1.20;0.83;;;15.90;99.90;;;;;;5116532;28;20441;-57
2022/09/01 01:28:45;;;;;;;1.10;0.70;;;15.90;99.90;;;;;;5116379;28;20472;-59
2022/09/01 01:31:15;;;;;;;4.40;0.80;;;15.80;99.90;;;;;;5116650;28;20540;-57
2022/09/01 01:33:45;;;;;;;1.97;1.00;;;15.80;99.90;;;;;;5116472;28;20440;-58
2022/09/01 01:36:14;;;;;;;1.73;0.83;;;15.80;99.90;;;;;;5116521;28;20859;-58
2022/09/01 01:38:43;;;;;;;1.77;0.87;;;15.70;99.90;;;;;;5116307;28;20498;-58
2022/09/01 01:41:10;;;;;;;2.37;0.83;;;15.70;99.90;;;;;;5116205;28;20500;-58
2022/09/01 01:43:38;;;;;;;2.00;0.80;;;15.60;99.90;;;;;;5116372;28;20910;-57
2022/09/01 01:46:07;;;;;;;1.43;0.83;;;15.70;99.90;;;;;;5116430;28;20925;-57
2022/09/01 01:48:38;;;;;;;0.90;0.70;;;15.70;99.90;;;;;;5115747;28;20556;-60
2022/09/01 01:51:05;;;;;;;1.90;1.00;;;15.80;99.90;;;;;;5116059;28;20448;-58
2022/09/01 01:53:33;;;;;;;0.97;0.90;;;15.70;99.90;;;;;;5116042;28;20805;-59
2022/09/01 01:56:01;;;;;;;1.40;0.90;;;15.60;99.90;;;;;;5115859;28;20479;-58
2022/09/01 01:58:29;;;;;;;0.83;0.83;;;15.60;99.90;;;;;;5116106;28;20937;-59
2022/09/01 02:00:58;;;;;;;2.27;0.80;;;15.50;99.90;;;;;;5115966;28;20461;-59
2022/09/01 02:03:27;;;;;;;0.90;0.80;;;15.50;99.90;;;;;;5115900;28;20452;-58
2022/09/01 02:05:55;;;;;;;1.43;1.33;;;15.50;99.90;;;;;;5115623;28;20481;-56
2022/09/01 02:08:24;;;;;;;0.70;0.70;;;15.40;99.90;;;;;;5115661;28;20545;-58
2022/09/01 02:10:53;;;;;;;1.60;0.90;;;15.50;99.90;;;;;;5114651;28;20445;-58
2022/09/01 02:13:29;;;;;;;1.43;0.77;;;15.50;99.90;;;;;;5115828;28;20557;-57
2022/09/01 02:15:59;;;;;;;1.10;0.80;;;15.50;99.90;;;;;;5115559;28;20477;-58
2022/09/01 02:18:33;;;;;;;1.00;0.90;;;15.40;99.90;;;;;;5115912;28;20861;-59
2022/09/01 02:21:00;;;;;;;1.10;0.80;;;15.50;99.90;;;;;;5115705;28;20445;-58
2022/09/01 02:23:27;;;;;;;1.17;1.00;;;15.40;99.90;;;;;;5115581;28;20529;-59
2022/09/01 02:25:56;;;;;;;1.30;0.87;;;15.30;99.90;;;;;;5115428;28;20532;-58
2022/09/01 02:28:26;;;;;;;0.90;0.67;;;15.30;99.90;;;;;;5115440;28;20993;-57
2022/09/01 02:30:54;;;;;;;2.53;0.83;;;15.30;99.90;;;;;;5115282;28;20449;-57
2022/09/01 02:33:24;;;;;;;2.13;1.10;;;15.30;99.90;;;;;;5115283;28;20457;-58
2022/09/01 02:35:52;;;;;;;1.07;0.97;;;15.30;99.90;;;;;;5115395;28;20560;-58
2022/09/01 02:38:22;;;;;;;0.80;0.73;;;15.30;99.90;;;;;;5115384;28;20446;-59
2022/09/01 02:40:49;;;;;;;0.97;0.80;;;15.30;99.90;;;;;;5115212;28;20449;-58
2022/09/01 02:43:18;;;;;;;1.53;0.80;;;15.20;99.90;;;;;;5115093;28;20446;-58
2022/09/01 02:45:45;;;;;;;1.20;1.00;;;15.20;99.90;;;;;;5114875;28;20448;-58
2022/09/01 02:48:12;;;;;;;0.90;0.70;;;15.20;99.90;;;;;;5114810;28;20474;-58
2022/09/01 02:50:41;;;;;;;1.43;0.90;;;15.10;99.90;;;;;;5115029;28;20473;-59
2022/09/01 02:53:11;;;;;;;2.10;0.90;;;15.10;99.90;;;;;;5114959;28;20544;-57
2022/09/01 02:55:39;;;;;;;1.10;1.00;;;15.10;99.90;;;;;;5114626;28;20538;-59
2022/09/01 02:58:06;;;;;;;1.13;0.80;;;15.10;99.90;;;;;;5114683;28;20873;-58
2022/09/01 03:00:38;;;;;;;1.30;0.90;;;15.00;99.90;;;;;;5114836;28;20449;-59
2022/09/01 03:03:06;;;;;;;0.97;0.87;;;15.00;99.90;;;;;;5114893;28;20884;-58
2022/09/01 03:05:34;;;;;;;1.57;0.90;;;15.00;99.90;;;;;;5114800;28;20541;-57
2022/09/01 03:08:06;;;;;;;1.83;0.90;;;15.00;99.90;;;;;;5114657;28;20446;-58
2022/09/01 03:10:35;;;;;;;2.23;0.90;;;14.90;99.90;;;;;;5114505;28;20502;-59
2022/09/01 03:13:05;;;;;;;1.20;0.90;;;15.00;99.90;;;;;;5114667;28;20851;-58
2022/09/01 03:15:33;;;;;;;1.30;0.80;;;15.10;99.90;;;;;;5114551;28;20535;-59
2022/09/01 03:18:00;;;;;;;1.10;0.80;;;15.10;99.90;;;;;;5114549;28;20475;-59
2022/09/01 03:20:29;;;;;;;0.80;0.80;;;15.30;99.90;;;;;;5114439;28;20514;-57
2022/09/01 03:22:57;;;;;;;3.90;0.90;;;15.30;99.90;;;;;;5113926;28;20821;-59
2022/09/01 03:25:28;;;;;;;1.40;1.00;;;15.30;99.90;;;;;;5114018;28;20492;-59
2022/09/01 03:27:58;;;;;;;1.10;0.80;;;15.20;99.90;;;;;;5114251;28;20450;-58
2022/09/01 03:30:25;;;;;;;1.40;1.00;;;15.20;99.90;;;;;;5113949;28;20445;-59
2022/09/01 03:32:52;;;;;;;1.13;1.03;;;15.20;99.90;;;;;;5114465;28;20627;-58
2022/09/01 03:35:18;;;;;;;1.67;1.43;;;15.10;99.90;;;;;;5113921;28;20477;-58
2022/09/01 03:37:45;;;;;;;1.97;0.90;;;14.90;99.90;;;;;;5113825;28;20452;-57
2022/09/01 03:40:12;;;;;;;1.80;0.97;;;14.90;99.90;;;;;;5114081;28;20441;-59
2022/09/01 03:42:40;;;;;;;1.13;1.03;;;14.80;99.90;;;;;;5113985;28;20533;-58
2022/09/01 03:45:11;;;;;;;2.13;1.00;;;14.70;99.90;;;;;;5113885;28;20467;-58
2022/09/01 03:47:38;;;;;;;1.30;1.03;;;14.60;99.90;;;;;;5113623;28;20477;-58
2022/09/01 03:50:07;;;;;;;4.07;1.47;;;14.50;99.90;;;;;;5113659;28;20445;-58
2022/09/01 03:52:34;;;;;;;3.23;1.20;;;14.50;99.90;;;;;;5113614;28;20446;-59
2022/09/01 03:55:00;;;;;;;1.07;0.97;;;14.50;99.90;;;;;;5113554;28;20992;-58
2022/09/01 03:57:29;;;;;;;1.63;1.50;;;14.40;99.90;;;;;;5113870;28;20872;-59
2022/09/01 03:59:58;;;;;;;1.23;1.00;;;14.20;99.90;;;;;;5113688;28;20482;-58
2022/09/01 04:02:28;;;;;;;1.50;1.13;;;14.10;99.90;;;;;;5113497;28;20441;-57
2022/09/01 04:04:57;;;;;;;1.73;1.13;;;14.20;99.90;;;;;;5113466;28;20944;-58
2022/09/01 04:07:25;;;;;;;1.00;0.90;;;14.10;99.90;;;;;;5113621;28;20445;-58
2022/09/01 04:09:52;;;;;;;2.30;1.47;;;14.20;99.90;;;;;;5113352;28;20448;-58
2022/09/01 04:12:18;;;;;;;8.43;1.53;;;14.10;99.90;;;;;;5113314;28;20449;-58
2022/09/01 04:14:46;;;;;;;2.00;1.10;;;14.20;99.90;;;;;;5113215;28;20493;-58
2022/09/01 04:20:01;;;;;;;2.80;1.00;;;14.10;99.90;;;;;;5113309;28;20829;-59
2022/09/01 04:22:30;;;;;;;1.00;0.90;;;14.20;99.90;;;;;;5113380;28;20836;-56
2022/09/01 04:24:58;;;;;;;1.67;0.90;;;14.00;99.90;;;;;;5113104;28;20564;-57
2022/09/01 04:27:25;;;;;;;2.00;1.13;;;14.00;99.90;;;;;;5113247;28;20946;-57
2022/09/01 04:29:52;;;;;;;1.30;0.90;;;14.00;99.90;;;;;;5113129;28;20445;-58
2022/09/01 04:32:20;;;;;;;1.53;1.00;;;14.00;99.90;;;;;;5113374;28;20450;-58
2022/09/01 04:34:47;;;;;;;1.73;1.10;;;14.00;99.90;;;;;;5114931;28;20477;-58
2022/09/01 04:37:16;;;;;;;2.97;0.90;;;14.00;99.90;;;;;;5117523;28;20488;-57
2022/09/01 04:39:51;;;;;;;1.27;1.17;;;14.10;99.90;;;;;;5117470;28;20445;-58
2022/09/01 04:42:22;;;;;;;2.50;1.10;;;13.90;99.90;;;;;;5117185;28;20449;-59
2022/09/01 04:44:48;;;;;;;1.20;1.00;;;13.90;99.90;;;;;;5117653;28;20837;-58
2022/09/01 04:47:15;;;;;;;2.37;1.10;;;14.00;99.90;;;;;;5117115;28;20477;-58
2022/09/01 04:49:44;;;;;;;2.73;1.40;;;13.90;99.90;;;;;;5117294;28;20528;-58
2022/09/01 04:52:11;;;;;;;3.83;2.07;;;13.90;99.90;;;;;;5117135;28;20789;-58
2022/09/01 04:54:39;;;;;;;3.73;1.20;;;13.90;99.90;;;;;;5116958;28;20453;-59
2022/09/01 04:57:06;;;;;;;3.10;1.30;;;13.80;99.90;;;;;;5116961;28;20540;-57
2022/09/01 04:59:33;;;;;;;2.60;1.10;;;13.70;99.90;;;;;;5116955;28;20552;-58
2022/09/01 05:02:00;;;;;;;2.23;1.20;;;13.70;99.90;;;;;;5117027;28;20532;-58
2022/09/01 05:04:32;;;;;;;2.20;1.17;;;13.70;99.90;;;;;;5116939;28;20445;-58
2022/09/01 05:07:01;;;;;;;2.17;0.90;;;13.70;99.90;;;;;;5116877;28;20449;-59
2022/09/01 05:09:28;;;;;;;1.50;1.03;;;13.70;99.90;;;;;;5116607;28;20445;-58
2022/09/01 05:11:56;;;;;;;1.50;1.00;;;13.70;99.90;;;;;;5116788;28;20472;-59
2022/09/01 05:14:24;;;;;;;3.30;1.93;;;13.70;99.90;;;;;;5116820;28;20477;-58
2022/09/01 05:16:55;;;;;;;1.53;1.40;;;13.60;99.90;;;;;;5116401;28;21011;-57
2022/09/01 05:19:23;;;;;;;2.03;1.20;;;13.70;99.90;;;;;;5116582;28;20446;-56
2022/09/01 05:21:50;;;;;;;2.37;1.20;;;13.70;99.90;;;;;;5116501;28;20453;-57
2022/09/01 05:24:21;;;;;;;1.50;1.20;;;13.60;99.90;;;;;;5116331;28;20446;-57
2022/09/01 05:26:49;;;;;;;1.50;1.17;;;13.50;99.90;;;;;;5116548;28;20506;-56
2022/09/01 05:29:16;;;;;;;1.63;1.40;;;13.50;99.90;;;;;;5116450;28;20456;-58
2022/09/01 05:31:45;;;;;;;2.47;1.13;;;13.50;99.90;;;;;;5116406;28;20507;-58
2022/09/01 05:34:12;;;;;;;1.60;1.17;;;13.60;99.90;;;;;;5116251;28;21097;-58
2022/09/01 05:36:45;;;;;;;1.23;1.13;;;13.60;99.90;;;;;;5116049;28;20477;-58
2022/09/01 05:39:11;;;;;;;1.50;1.30;;;13.60;99.90;;;;;;5116496;28;20960;-58
2022/09/01 05:41:40;;;;;;;2.60;1.30;;;13.70;99.90;;;;;;5116104;28;20461;-57
2022/09/01 05:44:07;;;;;;;1.80;1.37;;;13.70;99.90;;;;;;5116022;28;20456;-58
2022/09/01 05:46:37;;;;;;;1.93;1.40;;;13.80;99.90;;;;;;5115768;28;20445;-59
2022/09/01 05:49:06;;;;;;;1.47;1.00;;;14.00;99.90;;;;;;5115809;28;20460;-56
2022/09/01 05:51:34;;;;;;;1.97;1.37;;;14.20;99.90;;;;;;5115998;28;20445;-58
2022/09/01 05:54:01;;;;;;;3.60;1.77;;;14.30;99.90;;;;;;5115846;28;20763;-57
2022/09/01 05:56:28;;;;;;;3.83;1.47;;;14.40;99.90;;;;;;5115833;28;20482;-58
2022/09/01 05:58:58;;;;;;;2.10;1.40;;;14.60;99.90;;;;;;5115832;28;20441;-58
2022/09/01 06:01:26;;;;;;;1.53;1.37;;;14.70;99.90;;;;;;5115858;28;20445;-57
2022/09/01 06:03:55;;;;;;;2.33;1.70;;;14.80;99.90;;;;;;5115832;28;20444;-58
2022/09/01 06:06:22;;;;;;;4.57;1.43;;;15.00;99.90;;;;;;5115701;28;20448;-58
2022/09/01 06:08:49;;;;;;;2.60;1.20;;;14.90;99.90;;;;;;5115537;28;20499;-58
2022/09/01 06:11:16;;;;;;;1.40;1.30;;;14.90;99.90;;;;;;5115474;28;20529;-54
2022/09/01 06:13:43;;;;;;;1.43;1.33;;;15.00;99.90;;;;;;5115474;28;20473;-58
2022/09/01 06:16:13;;;;;;;1.90;1.27;;;14.90;99.90;;;;;;5115256;28;20477;-58
2022/09/01 06:18:42;;;;;;;1.73;1.07;;;15.00;99.90;;;;;;5115557;28;21028;-56
2022/09/01 06:21:13;;;;;;;3.27;1.50;;;15.10;99.90;;;;;;5115401;28;20791;-58
2022/09/01 06:23:40;;;;;;;1.67;1.10;;;15.10;99.90;;;;;;5115337;28;20481;-55
2022/09/01 06:26:06;;;;;;;3.43;1.10;;;15.10;99.90;;;;;;5115213;28;20536;-58
2022/09/01 06:28:33;;;;;;;1.30;1.20;;;15.30;99.90;;;;;;5115198;28;20544;-57
2022/09/01 06:31:05;;;;;;;1.10;1.00;;;15.30;99.90;;;;;;5115482;28;20477;-57
2022/09/01 06:33:34;;;;;;;1.53;1.43;;;15.40;99.90;;;;;;5115285;28;20826;-57
2022/09/01 06:36:02;;;;;;;1.80;1.07;;;15.50;99.90;;;;;;5115024;28;20887;-56
2022/09/01 06:38:29;;;;;;;2.63;1.10;;;15.70;99.90;;;;;;5115183;28;20540;-58
2022/09/01 06:41:00;;;;;;;1.90;1.40;;;15.90;99.90;;;;;;5114940;28;20528;-59
2022/09/01 06:43:29;;;;;;;4.17;1.30;;;16.10;99.90;;;;;;5114855;28;20449;-58
2022/09/01 06:45:56;;;;;;;5.23;1.10;;;16.00;99.90;;;;;;5114902;28;20532;-59
2022/09/01 06:48:22;;;;;;;3.33;1.30;;;15.90;99.90;;;;;;5114758;28;20992;-57
2022/09/01 06:50:50;;;;;;;1.27;1.17;;;16.10;99.90;;;;;;5114719;28;20530;-56
2022/09/01 06:53:17;;;;;;;1.27;1.17;;;16.10;99.90;;;;;;5114882;28;20442;-58
2022/09/01 06:55:48;;;;;;;1.60;1.30;;;16.20;99.90;;;;;;5114513;28;20980;-58
2022/09/01 06:58:15;;;;;;;2.23;1.10;;;16.10;99.90;;;;;;5114229;28;20544;-56
2022/09/01 07:00:42;;;;;;;4.33;1.30;;;16.20;99.90;;;;;;5114680;28;20559;-57
2022/09/01 07:03:10;;;;;;;1.10;1.00;;;16.40;99.90;;;;;;5114577;28;20888;-57
2022/09/01 07:05:39;;;;;;;1.10;0.87;;;16.40;99.90;;;;;;5114523;28;20873;-56
2022/09/01 07:08:09;;;;;;;1.47;1.10;;;16.40;99.90;;;;;;5114446;28;20548;-58
2022/09/01 07:10:44;;;;;;;1.30;0.90;;;16.50;99.90;;;;;;5114671;28;20454;-58
2022/09/01 07:13:12;;;;;;;1.67;0.97;;;16.60;99.90;;;;;;5114506;28;20781;-57
2022/09/01 07:15:40;;;;;;;2.90;0.90;;;16.70;99.90;;;;;;5114118;28;20480;-58
2022/09/01 07:18:06;;;;;;;1.63;1.20;;;16.90;99.90;;;;;;5114166;28;20457;-58
2022/09/01 07:20:38;;;;;;;20.00;5.30;;;17.00;99.90;;;;;;5114147;27;20960;-56
2022/09/01 07:23:06;;;;;;;2.30;1.07;;;17.00;99.90;;;;;;5114099;28;20438;-59
2022/09/01 07:25:33;;;;;;;2.50;1.00;;;17.20;99.90;;;;;;5114233;28;20456;-59
2022/09/01 07:28:00;;;;;;;1.20;1.10;;;17.00;99.90;;;;;;5110202;28;20810;-59
2022/09/01 07:30:27;;;;;;;1.40;1.03;;;17.00;99.90;;;;;;5093599;28;20482;-59
2022/09/01 07:32:54;;;;;;;4.13;0.93;;;17.10;99.90;;;;;;5096889;28;20503;-59
2022/09/01 07:35:22;;;;;;;2.57;1.10;;;17.20;99.90;;;;;;5098959;28;20813;-58
2022/09/01 07:37:50;;;;;;;1.30;1.00;;;17.40;99.90;;;;;;5093469;28;20948;-58
2022/09/01 07:40:21;;;;;;;1.53;1.03;;;17.50;99.90;;;;;;5093172;28;20536;-59
2022/09/01 07:42:49;;;;;;;4.40;1.27;;;17.50;99.90;;;;;;5093418;28;20451;-59
2022/09/01 07:45:17;;;;;;;1.80;1.07;;;17.50;99.90;;;;;;5093311;28;20458;-59
2022/09/01 07:47:43;;;;;;;5.63;1.70;;;17.70;99.90;;;;;;5096278;28;20538;-59
2022/09/01 07:50:13;;;;;;;1.77;1.00;;;17.80;99.90;;;;;;5113827;28;20446;-59
2022/09/01 07:52:42;;;;;;;3.00;1.13;;;17.80;99.90;;;;;;5096185;28;20447;-59
2022/09/01 07:55:10;;;;;;;2.47;1.10;;;17.80;99.90;;;;;;5093056;28;20454;-59
2022/09/01 07:57:39;;;;;;;2.00;0.93;;;17.90;99.90;;;;;;5093136;28;20474;-59
2022/09/01 08:00:07;;;;;;;1.77;1.10;;;17.70;99.90;;;;;;5093159;28;20446;-59
2022/09/01 08:02:35;;;;;;;3.10;1.93;;;17.80;99.90;;;;;;5093254;28;20776;-59
2022/09/01 08:05:02;;;;;;;1.20;0.90;;;17.70;99.90;;;;;;5093361;28;20449;-59
2022/09/01 08:07:28;;;;;;;1.77;0.90;;;17.60;99.90;;;;;;5113243;28;20441;-59
2022/09/01 08:09:55;;;;;;;1.90;0.90;;;17.80;99.90;;;;;;5112299;28;20490;-59
2022/09/01 08:12:21;;;;;;;1.97;1.10;;;18.10;99.90;;;;;;5113412;28;20545;-59
2022/09/01 08:14:51;;;;;;;5.67;1.17;;;18.10;99.90;;;;;;5113337;28;20449;-59
2022/09/01 08:17:18;;;;;;;1.87;0.80;;;18.10;99.90;;;;;;5113627;28;20553;-59
2022/09/01 08:19:45;;;;;;;2.70;1.30;;;18.20;99.90;;;;;;5113381;28;20506;-59
2022/09/01 08:22:12;;;;;;;2.30;1.57;;;18.40;99.90;;;;;;5113129;28;20502;-60
2022/09/01 08:24:39;;;;;;;1.20;1.00;;;18.60;99.90;;;;;;5108889;28;20485;-59
2022/09/01 08:27:05;;;;;;;3.63;0.97;;;18.50;99.90;;;;;;5125672;28;20443;-59
2022/09/01 08:29:32;;;;;;;1.30;0.97;;;18.40;99.90;;;;;;5115409;28;20446;-59
2022/09/01 08:32:01;;;;;;;1.13;0.90;;;18.60;99.90;;;;;;5113253;28;20879;-59
2022/09/01 08:34:27;;;;;;;2.40;0.80;;;18.60;99.90;;;;;;5113049;28;20445;-59
2022/09/01 08:36:54;;;;;;;1.60;1.10;;;18.70;99.90;;;;;;5118292;28;20561;-60
2022/09/01 08:39:20;;;;;;;1.43;0.90;;;18.70;99.90;;;;;;5113007;28;20541;-60
2022/09/01 08:41:55;;;;;;;2.10;0.87;;;18.90;99.90;;;;;;5115331;28;20445;-61
2022/09/01 08:44:33;;;;;;;0.90;0.90;;;18.70;99.90;;;;;;5122691;28;20531;-60
2022/09/01 08:47:05;;;;;;;1.10;1.00;;;18.80;99.90;;;;;;5133398;27;20559;-60
2022/09/01 08:49:35;;;;;;;4.77;1.50;;;18.70;99.90;;;;;;5133512;28;20448;-60
2022/09/01 08:52:11;;;;;;;3.80;0.80;;;18.80;99.90;;;;;;5127367;28;20437;-60
2022/09/01 08:54:44;;;;;;;1.77;0.90;;;18.80;99.90;;;;;;5127245;28;20815;-60
2022/09/01 08:57:16;;;;;;;1.40;1.00;;;18.80;99.90;;;;;;5133017;28;20484;-61
2022/09/01 08:59:42;;;;;;;1.97;1.10;;;18.90;99.90;;;;;;5133572;28;20535;-60
2022/09/01 09:02:26;;;;;;;2.00;0.90;;;18.90;99.90;;;;;;5133389;28;20453;-60
2022/09/01 09:05:02;;;;;;;2.30;1.20;;;19.00;99.90;;;;;;5133263;28;20543;-61
2022/09/01 09:07:43;;;;;;;1.07;0.93;;;19.10;99.90;;;;;;5133430;28;20531;-61
2022/09/01 09:10:17;;;;;;;1.40;0.77;;;19.20;99.90;;;;;;5112356;28;20567;-61
2022/09/01 09:12:58;;;;;;;1.33;1.00;;;19.20;99.90;;;;;;5112844;28;20445;-60
2022/09/01 09:15:32;;;;;;;1.13;1.03;;;19.40;99.90;;;;;;5112720;28;20456;-60
2022/09/01 09:18:16;;;;;;;2.00;0.80;;;19.60;99.90;;;;;;5112732;28;20480;-61
2022/09/01 09:20:44;;;;;;;1.00;0.80;;;19.70;99.90;;;;;;5114324;28;20453;-61
2022/09/01 09:23:21;;;;;;;0.97;0.70;;;19.80;99.90;;;;;;5116479;28;20448;-60
2022/09/01 09:25:47;;;;;;;1.37;1.00;;;19.80;99.90;;;;;;5116311;28;20463;-61
2022/09/01 09:28:14;;;;;;;1.93;1.00;;;19.70;99.90;;;;;;5116616;28;20476;-61
2022/09/01 09:30:41;;;;;;;1.23;1.00;;;19.80;99.90;;;;;;5116504;28;20441;-61
2022/09/01 09:33:11;;;;;;;1.97;0.73;;;19.60;99.90;;;;;;5116433;28;20498;-61
2022/09/01 09:35:40;;;;;;;1.10;0.73;;;19.70;99.90;;;;;;5116147;28;20449;-60
2022/09/01 09:38:21;;;;;;;0.80;0.80;;;19.70;99.90;;;;;;5116087;28;20561;-60
2022/09/01 09:41:03;;;;;;;1.63;1.10;;;19.90;99.90;;;;;;5116422;28;20449;-60
2022/09/01 09:43:32;;;;;;;2.87;0.90;;;20.00;99.90;;;;;;5116115;28;20484;-60
2022/09/01 09:46:21;;;;;;;2.60;0.90;;;20.00;99.90;;;;;;5116108;28;20445;-60
2022/09/01 09:49:05;;;;;;;4.10;0.97;;;20.30;99.90;;;;;;5115903;28;20477;-60
2022/09/01 09:51:31;;;;;;;1.47;0.73;;;20.20;99.90;;;;;;5115918;28;20446;-61
2022/09/01 09:54:15;;;;;;;5.80;0.97;;;20.00;99.90;;;;;;5115971;28;20782;-61
2022/09/01 09:56:44;;;;;;;2.30;0.90;;;20.00;99.90;;;;;;5115811;28;20481;-60
2022/09/01 09:59:27;;;;;;;1.43;0.80;;;20.20;99.90;;;;;;5115675;28;20462;-60
2022/09/01 10:01:57;;;;;;;1.07;0.97;;;20.30;99.90;;;;;;5115854;28;20445;-60
2022/09/01 10:04:36;;;;;;;1.20;0.70;;;20.20;99.90;;;;;;5115713;28;20607;-60
2022/09/01 10:07:24;;;;;;;1.00;0.80;;;20.20;99.90;;;;;;5115698;28;20570;-60
2022/09/01 10:09:52;;;;;;;1.77;0.90;;;20.20;99.90;;;;;;5115742;28;20447;-60
2022/09/01 10:12:19;;;;;;;1.90;1.07;;;20.20;99.90;;;;;;5115665;28;20812;-60
2022/09/01 10:14:51;;;;;;;1.30;0.87;;;20.20;99.90;;;;;;5115450;28;20453;-60
2022/09/01 10:17:23;;;;;;;5.67;0.90;;;20.10;99.90;;;;;;5114574;28;20477;-60
2022/09/01 10:19:55;;;;;;;2.70;1.10;;;20.20;99.90;;;;;;5112784;28;20449;-61
2022/09/01 10:22:24;;;;;;;1.37;0.90;;;20.10;99.90;;;;;;5115032;28;20965;-60
2022/09/01 10:24:51;;;;;;;1.00;0.70;;;20.10;99.90;;;;;;5114909;28;20453;-60
2022/09/01 10:27:21;;;;;;;1.00;0.80;;;20.20;99.90;;;;;;5115401;28;20446;-60
2022/09/01 10:29:53;;;;;;;1.67;1.40;;;20.40;99.90;;;;;;5115218;28;20544;-61
2022/09/01 10:32:23;;;;;;;0.80;0.70;;;20.50;99.90;;;;;;5114232;28;20524;-61
2022/09/01 10:34:52;;;;;;;1.03;0.77;;;20.80;99.90;;;;;;5115300;28;20777;-60
2022/09/01 10:37:20;;;;;;;3.43;1.03;;;20.70;99.90;;;;;;5114529;28;20584;-60
2022/09/01 10:40:13;;;;;;;2.13;0.90;;;20.40;99.90;;;;;;5114394;28;20444;-60
2022/09/01 10:42:41;;;;;;;1.00;0.90;;;20.70;99.90;;;;;;5114835;28;20445;-60
2022/09/01 10:45:18;;;;;;;1.97;0.77;;;20.40;99.90;;;;;;5115059;28;20450;-60
2022/09/01 10:47:45;;;;;;;1.07;0.90;;;20.70;99.90;;;;;;5114765;28;20473;-60
2022/09/01 10:50:27;;;;;;;0.97;0.70;;;20.70;99.90;;;;;;5114690;28;20441;-60
2022/09/01 10:53:00;;;;;;;4.40;1.37;;;20.50;99.90;;;;;;5114714;28;20442;-60
2022/09/01 10:55:35;;;;;;;3.47;1.53;;;20.50;99.90;;;;;;5114523;28;20453;-60
2022/09/01 10:58:16;;;;;;;1.40;1.00;;;20.40;99.90;;;;;;5114794;28;20476;-61
2022/09/01 11:00:50;;;;;;;1.93;1.10;;;20.50;99.90;;;;;;5114560;28;20456;-60
2022/09/01 11:03:59;;;;;;;3.00;1.00;;;20.20;99.90;;;;;;5114517;28;21015;-60
2022/09/01 11:06:56;;;;;;;1.67;0.80;;;20.10;99.90;;;;;;5104283;28;20448;-60
2022/09/01 11:09:26;;;;;;;1.43;0.97;;;20.40;99.90;;;;;;5093866;28;20450;-60
2022/09/01 11:12:10;;;;;;;2.10;1.00;;;20.70;99.90;;;;;;5124752;27;20523;-61
2022/09/01 11:14:48;;;;;;;0.90;0.70;;;20.60;99.90;;;;;;5134922;27;20506;-61
2022/09/01 11:17:19;;;;;;;2.27;0.93;;;20.60;99.90;;;;;;5115075;27;20995;-63
2022/09/01 11:19:54;;;;;;;1.73;0.60;;;20.70;99.90;;;;;;5114111;28;20536;-59
2022/09/01 11:22:28;;;;;;;0.80;0.80;;;20.70;99.90;;;;;;5114066;28;20834;-60
2022/09/01 11:25:36;;;;;;;1.07;0.80;;;20.90;99.90;;;;;;5114221;28;20449;-60
2022/09/01 11:28:31;;;;;;;1.60;0.90;;;20.90;99.90;;;;;;5114023;28;20862;-59
2022/09/01 11:31:01;;;;;;;1.90;0.77;;;20.90;99.90;;;;;;5113804;28;20498;-61
2022/09/01 11:33:47;;;;;;;1.70;0.90;;;21.10;99.90;;;;;;5113894;28;20445;-61
2022/09/01 11:36:23;;;;;;;2.23;1.07;;;20.90;99.90;;;;;;5110515;28;20468;-60
2022/09/01 11:38:51;;;;;;;1.47;0.70;;;21.00;99.90;;;;;;5113459;28;20481;-61
2022/09/01 11:41:23;;;;;;;2.47;0.90;;;20.90;99.90;;;;;;5113854;28;20481;-61
2022/09/01 11:43:52;;;;;;;0.80;0.63;;;20.90;99.90;;;;;;5113337;28;20447;-63
2022/09/01 11:46:23;;;;;;;1.10;0.80;;;20.80;99.90;;;;;;5113367;28;20966;-63
2022/09/01 11:48:49;;;;;;;1.53;0.80;;;20.80;99.90;;;;;;5113217;28;20480;-64
2022/09/01 11:51:17;;;;;;;1.83;0.70;;;20.80;99.90;;;;;;5113197;28;20942;-64
2022/09/01 11:53:43;;;;;;;2.13;0.90;;;20.90;99.90;;;;;;5115738;27;20437;-62
2022/09/01 11:56:17;;;;;;;2.40;0.70;;;21.10;99.90;;;;;;5129786;27;20975;-60
2022/09/01 11:58:44;;;;;;;3.20;0.90;;;21.10;99.90;;;;;;5133958;27;20485;-61
2022/09/01 12:01:17;;;;;;;1.70;0.77;;;21.50;99.90;;;;;;5133983;27;20448;-61
2022/09/01 12:03:47;;;;;;;1.00;0.90;;;21.60;99.90;;;;;;5133780;27;20964;-61
2022/09/01 12:06:21;;;;;;;1.73;0.90;;;21.70;99.90;;;;;;5133638;27;20502;-60
2022/09/01 12:08:54;;;;;;;6.17;1.20;;;21.70;99.90;;;;;;5133954;27;20535;-60
2022/09/01 12:11:26;;;;;;;1.00;0.70;;;21.60;99.90;;;;;;5133838;27;20544;-60
2022/09/01 12:13:58;;;;;;;1.30;1.17;;;21.40;99.90;;;;;;5133713;27;20495;-61
2022/09/01 12:16:25;;;;;;;1.10;0.80;;;21.30;99.90;;;;;;5133653;27;20795;-59
2022/09/01 12:18:54;;;;;;;2.13;0.90;;;21.30;99.90;;;;;;5133701;27;20479;-58
2022/09/01 12:21:23;;;;;;;2.63;0.80;;;21.10;99.90;;;;;;5130090;27;20446;-61
2022/09/01 12:23:50;;;;;;;0.90;0.70;;;21.00;99.90;;;;;;5092666;28;20442;-60
2022/09/01 12:26:20;;;;;;;2.60;0.90;;;21.20;99.90;;;;;;5092541;28;20888;-61
2022/09/01 12:28:48;;;;;;;1.53;0.70;;;21.50;99.90;;;;;;5092519;28;21017;-60
2022/09/01 12:31:17;;;;;;;3.20;0.70;;;21.50;99.90;;;;;;5092647;28;20446;-61
2022/09/01 12:33:44;;;;;;;0.70;0.70;;;21.30;99.90;;;;;;5092908;28;20451;-62
2022/09/01 12:36:21;;;;;;;1.43;0.60;;;21.00;99.90;;;;;;5092781;28;20446;-62
2022/09/01 12:38:48;;;;;;;3.17;0.80;;;21.00;99.90;;;;;;5092609;28;20540;-62
2022/09/01 12:41:27;;;;;;;1.73;0.70;;;21.10;99.90;;;;;;5092562;28;20814;-60
2022/09/01 12:43:53;;;;;;;2.93;0.70;;;20.90;99.90;;;;;;5092434;28;20456;-62
2022/09/01 12:46:42;;;;;;;2.73;1.03;;;20.80;99.90;;;;;;5092423;28;20881;-63
2022/09/01 12:49:19;;;;;;;3.57;0.80;;;20.90;99.90;;;;;;5092328;28;20473;-60
2022/09/01 12:51:47;;;;;;;1.87;0.63;;;20.90;99.90;;;;;;5092489;28;20446;-63
2022/09/01 12:54:14;;;;;;;9.63;0.90;;;21.00;99.90;;;;;;5092323;28;20454;-60
2022/09/01 12:56:49;;;;;;;0.80;0.70;;;20.90;99.90;;;;;;5095813;28;20539;-62
2022/09/01 12:59:22;;;;;;;1.20;0.70;;;20.80;99.90;;;;;;5096495;28;20483;-61
2022/09/01 13:01:49;;;;;;;2.10;0.80;;;21.00;99.90;;;;;;5096433;28;20443;-60
2022/09/01 13:04:25;;;;;;;0.80;0.60;;;21.00;99.90;;;;;;5096252;28;20438;-59
2022/09/01 13:06:55;;;;;;;0.70;0.60;;;21.10;99.90;;;;;;5096436;28;20782;-61
2022/09/01 13:09:21;;;;;;;1.10;0.80;;;21.10;99.90;;;;;;5096335;28;20524;-59